sensor_id;sensor_type;location;lat;lon;timestamp;P1;durP1;ratioP1;P2;durP2;ratioP2
73729;SDS011;62036;48.128;16.458;2023-12-20T00:00:22;23.98;;;13.27;;
73729;SDS011;62036;48.128;16.458;2023-12-20T00:02:51;22.17;;;12.23;;
73729;SDS011;62036;48.128;16.458;2023-12-20T00:07:46;21.08;;;10.85;;
73729;SDS011;62036;48.128;16.458;2023-12-20T00:10:21;23.48;;;11.57;;
73729;SDS011;62036;48.128;16.458;2023-12-20T00:12:50;23.25;;;13.07;;
73729;SDS011;62036;48.128;16.458;2023-12-20T00:15:32;23.48;;;12.95;;
73729;SDS011;62036;48.128;16.458;2023-12-20T00:20:24;20.75;;;10.70;;
73729;SDS011;62036;48.128;16.458;2023-12-20T00:22:56;26.13;;;12.23;;
73729;SDS011;62036;48.128;16.458;2023-12-20T00:25:25;20.23;;;12.00;;
73729;SDS011;62036;48.128;16.458;2023-12-20T00:30:20;18.48;;;10.57;;
73729;SDS011;62036;48.128;16.458;2023-12-20T00:32:47;20.98;;;11.68;;
73729;SDS011;62036;48.128;16.458;2023-12-20T00:35:21;21.30;;;12.10;;
73729;SDS011;62036;48.128;16.458;2023-12-20T00:37:47;19.58;;;11.63;;
73729;SDS011;62036;48.128;16.458;2023-12-20T00:40:25;21.55;;;12.23;;
73729;SDS011;62036;48.128;16.458;2023-12-20T00:42:51;21.58;;;12.68;;
73729;SDS011;62036;48.128;16.458;2023-12-20T00:45:20;17.60;;;11.05;;
73729;SDS011;62036;48.128;16.458;2023-12-20T00:50:20;19.08;;;10.80;;
73729;SDS011;62036;48.128;16.458;2023-12-20T00:52:48;20.52;;;11.73;;
73729;SDS011;62036;48.128;16.458;2023-12-20T00:55:20;21.42;;;11.68;;
73729;SDS011;62036;48.128;16.458;2023-12-20T00:57:48;19.88;;;11.88;;
73729;SDS011;62036;48.128;16.458;2023-12-20T01:00:18;21.75;;;10.82;;
73729;SDS011;62036;48.128;16.458;2023-12-20T01:02:44;18.50;;;10.43;;
73729;SDS011;62036;48.128;16.458;2023-12-20T01:05:14;17.70;;;9.75;;
73729;SDS011;62036;48.128;16.458;2023-12-20T01:07:40;17.15;;;10.00;;
73729;SDS011;62036;48.128;16.458;2023-12-20T01:12:32;15.13;;;10.10;;
73729;SDS011;62036;48.128;16.458;2023-12-20T01:14:58;18.23;;;10.55;;
73729;SDS011;62036;48.128;16.458;2023-12-20T01:17:24;19.02;;;10.80;;
73729;SDS011;62036;48.128;16.458;2023-12-20T01:19:50;17.80;;;10.70;;
73729;SDS011;62036;48.128;16.458;2023-12-20T01:22:16;20.50;;;11.75;;
73729;SDS011;62036;48.128;16.458;2023-12-20T01:24:42;20.65;;;11.30;;
73729;SDS011;62036;48.128;16.458;2023-12-20T01:27:08;17.25;;;10.55;;
73729;SDS011;62036;48.128;16.458;2023-12-20T01:29:34;19.77;;;11.52;;
73729;SDS011;62036;48.128;16.458;2023-12-20T01:32:00;23.70;;;11.32;;
73729;SDS011;62036;48.128;16.458;2023-12-20T01:34:26;19.08;;;10.88;;
73729;SDS011;62036;48.128;16.458;2023-12-20T01:36:52;23.38;;;12.68;;
73729;SDS011;62036;48.128;16.458;2023-12-20T01:39:18;21.88;;;11.52;;
73729;SDS011;62036;48.128;16.458;2023-12-20T01:41:44;24.60;;;12.38;;
73729;SDS011;62036;48.128;16.458;2023-12-20T01:44:10;22.77;;;13.00;;
73729;SDS011;62036;48.128;16.458;2023-12-20T01:46:36;20.48;;;12.02;;
73729;SDS011;62036;48.128;16.458;2023-12-20T01:51:29;17.60;;;9.45;;
73729;SDS011;62036;48.128;16.458;2023-12-20T01:53:55;22.23;;;11.82;;
73729;SDS011;62036;48.128;16.458;2023-12-20T01:56:22;18.73;;;11.80;;
73729;SDS011;62036;48.128;16.458;2023-12-20T01:58:48;21.65;;;12.88;;
73729;SDS011;62036;48.128;16.458;2023-12-20T02:03:41;16.67;;;9.23;;
73729;SDS011;62036;48.128;16.458;2023-12-20T02:06:07;21.17;;;12.02;;
73729;SDS011;62036;48.128;16.458;2023-12-20T02:08:34;23.23;;;13.35;;
73729;SDS011;62036;48.128;16.458;2023-12-20T02:11:00;25.67;;;13.43;;
73729;SDS011;62036;48.128;16.458;2023-12-20T02:13:26;26.83;;;14.32;;
73729;SDS011;62036;48.128;16.458;2023-12-20T02:15:52;22.38;;;12.98;;
73729;SDS011;62036;48.128;16.458;2023-12-20T02:18:18;22.23;;;12.32;;
73729;SDS011;62036;48.128;16.458;2023-12-20T02:20:44;21.00;;;12.73;;
73729;SDS011;62036;48.128;16.458;2023-12-20T02:23:10;28.05;;;13.52;;
73729;SDS011;62036;48.128;16.458;2023-12-20T02:25:36;29.15;;;12.25;;
73729;SDS011;62036;48.128;16.458;2023-12-20T02:30:28;16.35;;;9.95;;
73729;SDS011;62036;48.128;16.458;2023-12-20T02:32:54;18.50;;;10.75;;
73729;SDS011;62036;48.128;16.458;2023-12-20T02:37:46;20.98;;;10.68;;
73729;SDS011;62036;48.128;16.458;2023-12-20T02:40:12;24.15;;;13.40;;
73729;SDS011;62036;48.128;16.458;2023-12-20T02:42:38;17.90;;;11.25;;
73729;SDS011;62036;48.128;16.458;2023-12-20T02:45:05;22.27;;;12.60;;
73729;SDS011;62036;48.128;16.458;2023-12-20T02:47:31;26.83;;;13.40;;
73729;SDS011;62036;48.128;16.458;2023-12-20T02:49:57;24.23;;;12.50;;
73729;SDS011;62036;48.128;16.458;2023-12-20T02:52:23;23.75;;;12.82;;
73729;SDS011;62036;48.128;16.458;2023-12-20T02:54:49;23.27;;;12.77;;
73729;SDS011;62036;48.128;16.458;2023-12-20T02:59:42;21.30;;;10.95;;
73729;SDS011;62036;48.128;16.458;2023-12-20T03:04:34;18.00;;;10.93;;
73729;SDS011;62036;48.128;16.458;2023-12-20T03:07:00;19.35;;;11.52;;
73729;SDS011;62036;48.128;16.458;2023-12-20T03:09:26;17.83;;;11.00;;
73729;SDS011;62036;48.128;16.458;2023-12-20T03:11:52;12.73;;;8.52;;
73729;SDS011;62036;48.128;16.458;2023-12-20T03:14:18;27.80;;;12.80;;
73729;SDS011;62036;48.128;16.458;2023-12-20T03:16:49;16.00;;;10.73;;
73729;SDS011;62036;48.128;16.458;2023-12-20T03:19:16;16.25;;;10.95;;
73729;SDS011;62036;48.128;16.458;2023-12-20T03:21:42;21.60;;;11.10;;
73729;SDS011;62036;48.128;16.458;2023-12-20T03:24:08;23.92;;;11.68;;
73729;SDS011;62036;48.128;16.458;2023-12-20T03:26:34;18.80;;;10.68;;
73729;SDS011;62036;48.128;16.458;2023-12-20T03:29:00;19.88;;;10.35;;
73729;SDS011;62036;48.128;16.458;2023-12-20T03:31:26;22.23;;;12.10;;
73729;SDS011;62036;48.128;16.458;2023-12-20T03:33:52;20.35;;;11.52;;
73729;SDS011;62036;48.128;16.458;2023-12-20T03:36:19;19.73;;;11.88;;
73729;SDS011;62036;48.128;16.458;2023-12-20T03:38:45;20.70;;;11.75;;
73729;SDS011;62036;48.128;16.458;2023-12-20T03:41:11;22.67;;;10.88;;
73729;SDS011;62036;48.128;16.458;2023-12-20T03:43:37;23.58;;;12.65;;
73729;SDS011;62036;48.128;16.458;2023-12-20T03:46:03;17.98;;;11.45;;
73729;SDS011;62036;48.128;16.458;2023-12-20T03:50:56;16.48;;;8.88;;
73729;SDS011;62036;48.128;16.458;2023-12-20T03:53:22;15.65;;;9.85;;
73729;SDS011;62036;48.128;16.458;2023-12-20T03:55:48;19.90;;;11.90;;
73729;SDS011;62036;48.128;16.458;2023-12-20T03:58:14;21.15;;;11.60;;
73729;SDS011;62036;48.128;16.458;2023-12-20T04:00:40;16.85;;;11.13;;
73729;SDS011;62036;48.128;16.458;2023-12-20T04:03:06;22.10;;;11.85;;
73729;SDS011;62036;48.128;16.458;2023-12-20T04:05:33;16.67;;;10.10;;
73729;SDS011;62036;48.128;16.458;2023-12-20T04:07:59;17.95;;;11.60;;
73729;SDS011;62036;48.128;16.458;2023-12-20T04:10:25;16.05;;;9.95;;
73729;SDS011;62036;48.128;16.458;2023-12-20T04:12:52;19.63;;;10.75;;
73729;SDS011;62036;48.128;16.458;2023-12-20T04:15:18;14.48;;;9.43;;
73729;SDS011;62036;48.128;16.458;2023-12-20T04:17:44;16.67;;;9.80;;
73729;SDS011;62036;48.128;16.458;2023-12-20T04:20:10;22.73;;;10.30;;
73729;SDS011;62036;48.128;16.458;2023-12-20T04:25:02;17.95;;;9.07;;
73729;SDS011;62036;48.128;16.458;2023-12-20T04:27:28;19.08;;;9.93;;
73729;SDS011;62036;48.128;16.458;2023-12-20T04:32:20;16.95;;;9.02;;
73729;SDS011;62036;48.128;16.458;2023-12-20T04:34:46;20.38;;;8.30;;
73729;SDS011;62036;48.128;16.458;2023-12-20T04:37:12;16.15;;;9.55;;
73729;SDS011;62036;48.128;16.458;2023-12-20T04:39:38;19.45;;;9.27;;
73729;SDS011;62036;48.128;16.458;2023-12-20T04:42:06;16.42;;;8.88;;
73729;SDS011;62036;48.128;16.458;2023-12-20T04:44:32;16.77;;;9.10;;
73729;SDS011;62036;48.128;16.458;2023-12-20T04:46:58;16.10;;;8.93;;
73729;SDS011;62036;48.128;16.458;2023-12-20T04:49:25;14.15;;;8.63;;
73729;SDS011;62036;48.128;16.458;2023-12-20T04:51:51;16.30;;;9.07;;
73729;SDS011;62036;48.128;16.458;2023-12-20T04:56:43;13.27;;;7.25;;
73729;SDS011;62036;48.128;16.458;2023-12-20T04:59:09;13.77;;;9.07;;
73729;SDS011;62036;48.128;16.458;2023-12-20T05:01:35;14.98;;;8.70;;
73729;SDS011;62036;48.128;16.458;2023-12-20T05:06:27;14.77;;;7.25;;
73729;SDS011;62036;48.128;16.458;2023-12-20T05:11:19;11.95;;;6.90;;
73729;SDS011;62036;48.128;16.458;2023-12-20T05:13:45;12.93;;;8.43;;
73729;SDS011;62036;48.128;16.458;2023-12-20T05:18:39;16.25;;;7.68;;
73729;SDS011;62036;48.128;16.458;2023-12-20T05:21:05;11.60;;;7.05;;
73729;SDS011;62036;48.128;16.458;2023-12-20T05:23:31;17.40;;;8.77;;
73729;SDS011;62036;48.128;16.458;2023-12-20T05:25:57;14.23;;;7.90;;
73729;SDS011;62036;48.128;16.458;2023-12-20T05:28:24;13.35;;;7.22;;
73729;SDS011;62036;48.128;16.458;2023-12-20T05:30:50;13.30;;;8.07;;
73729;SDS011;62036;48.128;16.458;2023-12-20T05:33:16;15.65;;;8.80;;
73729;SDS011;62036;48.128;16.458;2023-12-20T05:35:42;13.52;;;8.68;;
73729;SDS011;62036;48.128;16.458;2023-12-20T05:38:08;15.48;;;8.20;;
73729;SDS011;62036;48.128;16.458;2023-12-20T05:40:34;11.88;;;8.50;;
73729;SDS011;62036;48.128;16.458;2023-12-20T05:43:00;14.32;;;8.20;;
73729;SDS011;62036;48.128;16.458;2023-12-20T05:45:27;13.60;;;8.30;;
73729;SDS011;62036;48.128;16.458;2023-12-20T05:47:53;14.23;;;7.63;;
73729;SDS011;62036;48.128;16.458;2023-12-20T05:50:19;12.38;;;7.97;;
73729;SDS011;62036;48.128;16.458;2023-12-20T05:52:46;11.40;;;7.28;;
73729;SDS011;62036;48.128;16.458;2023-12-20T05:55:12;15.48;;;10.38;;
73729;SDS011;62036;48.128;16.458;2023-12-20T05:57:38;19.10;;;9.93;;
73729;SDS011;62036;48.128;16.458;2023-12-20T06:00:04;19.08;;;9.75;;
73729;SDS011;62036;48.128;16.458;2023-12-20T06:02:31;17.15;;;9.50;;
73729;SDS011;62036;48.128;16.458;2023-12-20T06:04:57;19.35;;;9.90;;
73729;SDS011;62036;48.128;16.458;2023-12-20T06:07:23;18.33;;;9.35;;
73729;SDS011;62036;48.128;16.458;2023-12-20T06:09:49;12.98;;;8.20;;
73729;SDS011;62036;48.128;16.458;2023-12-20T06:14:41;13.68;;;7.15;;
73729;SDS011;62036;48.128;16.458;2023-12-20T06:17:07;16.17;;;8.85;;
73729;SDS011;62036;48.128;16.458;2023-12-20T06:19:34;17.67;;;10.13;;
73729;SDS011;62036;48.128;16.458;2023-12-20T06:22:00;15.75;;;10.00;;
73729;SDS011;62036;48.128;16.458;2023-12-20T06:24:26;16.00;;;9.15;;
73729;SDS011;62036;48.128;16.458;2023-12-20T06:26:53;13.85;;;8.50;;
73729;SDS011;62036;48.128;16.458;2023-12-20T06:29:19;19.15;;;9.00;;
73729;SDS011;62036;48.128;16.458;2023-12-20T06:31:45;14.90;;;9.38;;
73729;SDS011;62036;48.128;16.458;2023-12-20T06:34:11;13.35;;;8.30;;
73729;SDS011;62036;48.128;16.458;2023-12-20T06:36:37;14.32;;;8.13;;
73729;SDS011;62036;48.128;16.458;2023-12-20T06:39:03;12.65;;;7.53;;
73729;SDS011;62036;48.128;16.458;2023-12-20T06:43:55;10.82;;;6.25;;
73729;SDS011;62036;48.128;16.458;2023-12-20T06:48:47;12.60;;;6.82;;
73729;SDS011;62036;48.128;16.458;2023-12-20T06:53:39;7.80;;;4.47;;
73729;SDS011;62036;48.128;16.458;2023-12-20T06:56:05;12.57;;;5.45;;
73729;SDS011;62036;48.128;16.458;2023-12-20T06:58:32;13.27;;;6.88;;
73729;SDS011;62036;48.128;16.458;2023-12-20T07:00:58;10.77;;;6.45;;
73729;SDS011;62036;48.128;16.458;2023-12-20T07:05:50;10.52;;;5.30;;
73729;SDS011;62036;48.128;16.458;2023-12-20T07:08:17;8.88;;;4.95;;
73729;SDS011;62036;48.128;16.458;2023-12-20T07:10:43;9.60;;;4.50;;
73729;SDS011;62036;48.128;16.458;2023-12-20T07:13:09;9.63;;;4.80;;
73729;SDS011;62036;48.128;16.458;2023-12-20T07:15:37;9.63;;;5.65;;
73729;SDS011;62036;48.128;16.458;2023-12-20T07:20:30;7.50;;;4.82;;
73729;SDS011;62036;48.128;16.458;2023-12-20T07:22:56;6.85;;;3.55;;
73729;SDS011;62036;48.128;16.458;2023-12-20T07:25:22;6.45;;;2.63;;
73729;SDS011;62036;48.128;16.458;2023-12-20T07:27:48;2.85;;;2.05;;
73729;SDS011;62036;48.128;16.458;2023-12-20T07:30:14;3.53;;;1.95;;
73729;SDS011;62036;48.128;16.458;2023-12-20T07:32:40;3.63;;;2.10;;
73729;SDS011;62036;48.128;16.458;2023-12-20T07:35:06;4.35;;;2.13;;
73729;SDS011;62036;48.128;16.458;2023-12-20T07:37:32;5.20;;;2.17;;
73729;SDS011;62036;48.128;16.458;2023-12-20T07:39:59;2.30;;;1.85;;
73729;SDS011;62036;48.128;16.458;2023-12-20T07:42:25;3.33;;;1.83;;
73729;SDS011;62036;48.128;16.458;2023-12-20T07:44:51;3.45;;;1.85;;
73729;SDS011;62036;48.128;16.458;2023-12-20T07:47:17;3.15;;;2.00;;
73729;SDS011;62036;48.128;16.458;2023-12-20T07:49:46;2.25;;;1.65;;
73729;SDS011;62036;48.128;16.458;2023-12-20T07:52:12;2.50;;;1.70;;
73729;SDS011;62036;48.128;16.458;2023-12-20T07:54:38;3.10;;;1.27;;
73729;SDS011;62036;48.128;16.458;2023-12-20T07:57:04;2.20;;;1.40;;
73729;SDS011;62036;48.128;16.458;2023-12-20T07:59:30;2.67;;;1.33;;
73729;SDS011;62036;48.128;16.458;2023-12-20T08:01:56;2.85;;;1.23;;
73729;SDS011;62036;48.128;16.458;2023-12-20T08:04:23;2.70;;;1.42;;
73729;SDS011;62036;48.128;16.458;2023-12-20T08:06:49;3.50;;;1.33;;
73729;SDS011;62036;48.128;16.458;2023-12-20T08:09:15;1.85;;;1.55;;
73729;SDS011;62036;48.128;16.458;2023-12-20T08:11:44;2.10;;;1.30;;
73729;SDS011;62036;48.128;16.458;2023-12-20T08:14:10;2.33;;;1.80;;
73729;SDS011;62036;48.128;16.458;2023-12-20T08:16:36;2.78;;;1.35;;
73729;SDS011;62036;48.128;16.458;2023-12-20T08:19:02;2.75;;;1.55;;
73729;SDS011;62036;48.128;16.458;2023-12-20T08:21:28;3.17;;;1.92;;
73729;SDS011;62036;48.128;16.458;2023-12-20T08:23:55;2.10;;;1.95;;
73729;SDS011;62036;48.128;16.458;2023-12-20T08:26:21;2.78;;;1.42;;
73729;SDS011;62036;48.128;16.458;2023-12-20T08:28:49;3.35;;;1.77;;
73729;SDS011;62036;48.128;16.458;2023-12-20T08:31:18;2.78;;;1.25;;
73729;SDS011;62036;48.128;16.458;2023-12-20T08:33:44;4.00;;;1.33;;
73729;SDS011;62036;48.128;16.458;2023-12-20T08:36:10;1.83;;;1.50;;
73729;SDS011;62036;48.128;16.458;2023-12-20T08:38:36;1.58;;;1.05;;
73729;SDS011;62036;48.128;16.458;2023-12-20T08:41:03;2.75;;;1.25;;
73729;SDS011;62036;48.128;16.458;2023-12-20T08:43:39;2.35;;;1.73;;
73729;SDS011;62036;48.128;16.458;2023-12-20T08:46:05;2.22;;;1.73;;
73729;SDS011;62036;48.128;16.458;2023-12-20T08:48:31;3.30;;;1.48;;
73729;SDS011;62036;48.128;16.458;2023-12-20T08:50:57;3.70;;;1.77;;
73729;SDS011;62036;48.128;16.458;2023-12-20T08:53:23;1.55;;;1.15;;
73729;SDS011;62036;48.128;16.458;2023-12-20T08:55:50;1.95;;;1.50;;
73729;SDS011;62036;48.128;16.458;2023-12-20T08:58:16;3.05;;;1.38;;
73729;SDS011;62036;48.128;16.458;2023-12-20T09:00:42;3.03;;;1.33;;
73729;SDS011;62036;48.128;16.458;2023-12-20T09:03:08;1.52;;;1.15;;
73729;SDS011;62036;48.128;16.458;2023-12-20T09:05:34;3.58;;;1.20;;
73729;SDS011;62036;48.128;16.458;2023-12-20T09:08:00;1.98;;;1.23;;
73729;SDS011;62036;48.128;16.458;2023-12-20T09:10:26;2.60;;;1.50;;
73729;SDS011;62036;48.128;16.458;2023-12-20T09:12:53;1.92;;;1.00;;
73729;SDS011;62036;48.128;16.458;2023-12-20T09:15:25;1.25;;;1.00;;
73729;SDS011;62036;48.128;16.458;2023-12-20T09:17:51;1.98;;;1.35;;
73729;SDS011;62036;48.128;16.458;2023-12-20T09:20:18;2.10;;;1.17;;
73729;SDS011;62036;48.128;16.458;2023-12-20T09:22:44;1.25;;;0.93;;
73729;SDS011;62036;48.128;16.458;2023-12-20T09:25:10;2.30;;;0.98;;
73729;SDS011;62036;48.128;16.458;2023-12-20T09:27:37;0.77;;;0.65;;
73729;SDS011;62036;48.128;16.458;2023-12-20T09:30:04;0.93;;;0.65;;
73729;SDS011;62036;48.128;16.458;2023-12-20T09:32:30;3.55;;;1.17;;
73729;SDS011;62036;48.128;16.458;2023-12-20T09:34:56;3.95;;;1.00;;
73729;SDS011;62036;48.128;16.458;2023-12-20T09:37:24;2.22;;;0.73;;
73729;SDS011;62036;48.128;16.458;2023-12-20T09:39:50;1.42;;;0.70;;
73729;SDS011;62036;48.128;16.458;2023-12-20T09:42:17;1.25;;;0.80;;
73729;SDS011;62036;48.128;16.458;2023-12-20T09:44:45;1.00;;;0.63;;
73729;SDS011;62036;48.128;16.458;2023-12-20T09:47:12;1.50;;;0.75;;
73729;SDS011;62036;48.128;16.458;2023-12-20T09:49:40;1.58;;;0.82;;
73729;SDS011;62036;48.128;16.458;2023-12-20T09:52:07;1.77;;;1.00;;
73729;SDS011;62036;48.128;16.458;2023-12-20T09:54:33;0.90;;;0.70;;
73729;SDS011;62036;48.128;16.458;2023-12-20T09:57:02;1.50;;;1.20;;
73729;SDS011;62036;48.128;16.458;2023-12-20T09:59:28;0.88;;;0.75;;
73729;SDS011;62036;48.128;16.458;2023-12-20T10:01:55;1.35;;;0.80;;
73729;SDS011;62036;48.128;16.458;2023-12-20T10:04:24;1.10;;;0.70;;
73729;SDS011;62036;48.128;16.458;2023-12-20T10:06:50;0.93;;;0.80;;
73729;SDS011;62036;48.128;16.458;2023-12-20T10:09:17;0.70;;;0.60;;
73729;SDS011;62036;48.128;16.458;2023-12-20T10:11:43;1.23;;;0.80;;
73729;SDS011;62036;48.128;16.458;2023-12-20T10:14:10;2.00;;;0.93;;
73729;SDS011;62036;48.128;16.458;2023-12-20T10:16:36;0.70;;;0.60;;
73729;SDS011;62036;48.128;16.458;2023-12-20T10:19:05;2.28;;;0.77;;
73729;SDS011;62036;48.128;16.458;2023-12-20T10:21:38;0.93;;;0.65;;
73729;SDS011;62036;48.128;16.458;2023-12-20T10:24:04;0.77;;;0.77;;
73729;SDS011;62036;48.128;16.458;2023-12-20T10:26:34;1.70;;;0.73;;
73729;SDS011;62036;48.128;16.458;2023-12-20T10:29:00;1.88;;;0.90;;
73729;SDS011;62036;48.128;16.458;2023-12-20T10:33:55;1.58;;;0.90;;
73729;SDS011;62036;48.128;16.458;2023-12-20T10:36:23;2.75;;;0.75;;
73729;SDS011;62036;48.128;16.458;2023-12-20T10:38:59;0.80;;;0.68;;
73729;SDS011;62036;48.128;16.458;2023-12-20T10:41:27;2.03;;;0.93;;
73729;SDS011;62036;48.128;16.458;2023-12-20T10:44:03;1.25;;;0.80;;
73729;SDS011;62036;48.128;16.458;2023-12-20T10:46:34;1.27;;;0.60;;
73729;SDS011;62036;48.128;16.458;2023-12-20T10:49:07;1.00;;;0.73;;
73729;SDS011;62036;48.128;16.458;2023-12-20T10:51:34;3.20;;;1.05;;
73729;SDS011;62036;48.128;16.458;2023-12-20T10:54:02;0.77;;;0.60;;
73729;SDS011;62036;48.128;16.458;2023-12-20T10:56:30;3.05;;;0.63;;
73729;SDS011;62036;48.128;16.458;2023-12-20T10:58:58;0.50;;;0.50;;
73729;SDS011;62036;48.128;16.458;2023-12-20T11:01:30;0.50;;;0.50;;
73729;SDS011;62036;48.128;16.458;2023-12-20T11:03:57;0.60;;;0.40;;
73729;SDS011;62036;48.128;16.458;2023-12-20T11:08:59;0.73;;;0.73;;
73729;SDS011;62036;48.128;16.458;2023-12-20T11:12:17;1.20;;;0.73;;
73729;SDS011;62036;48.128;16.458;2023-12-20T11:14:25;1.83;;;1.00;;
73729;SDS011;62036;48.128;16.458;2023-12-20T11:17:09;1.05;;;0.40;;
73729;SDS011;62036;48.128;16.458;2023-12-20T11:19:38;0.82;;;0.38;;
73729;SDS011;62036;48.128;16.458;2023-12-20T11:22:04;0.65;;;0.52;;
73729;SDS011;62036;48.128;16.458;2023-12-20T11:24:31;0.32;;;0.32;;
73729;SDS011;62036;48.128;16.458;2023-12-20T11:26:59;1.33;;;0.68;;
73729;SDS011;62036;48.128;16.458;2023-12-20T11:29:29;0.75;;;0.52;;
73729;SDS011;62036;48.128;16.458;2023-12-20T11:31:56;1.05;;;0.52;;
73729;SDS011;62036;48.128;16.458;2023-12-20T11:34:23;0.80;;;0.50;;
73729;SDS011;62036;48.128;16.458;2023-12-20T11:37:02;1.42;;;0.70;;
73729;SDS011;62036;48.128;16.458;2023-12-20T11:39:28;1.35;;;0.70;;
73729;SDS011;62036;48.128;16.458;2023-12-20T11:44:26;0.35;;;0.30;;
73729;SDS011;62036;48.128;16.458;2023-12-20T11:46:56;0.93;;;0.63;;
73729;SDS011;62036;48.128;16.458;2023-12-20T11:49:25;0.63;;;0.43;;
73729;SDS011;62036;48.128;16.458;2023-12-20T11:54:25;0.90;;;0.55;;
73729;SDS011;62036;48.128;16.458;2023-12-20T11:56:51;0.73;;;0.40;;
73729;SDS011;62036;48.128;16.458;2023-12-20T11:59:17;0.50;;;0.40;;
73729;SDS011;62036;48.128;16.458;2023-12-20T12:01:50;0.70;;;0.50;;
73729;SDS011;62036;48.128;16.458;2023-12-20T12:04:17;0.52;;;0.40;;
73729;SDS011;62036;48.128;16.458;2023-12-20T12:06:43;0.88;;;0.55;;
73729;SDS011;62036;48.128;16.458;2023-12-20T12:09:10;0.40;;;0.20;;
73729;SDS011;62036;48.128;16.458;2023-12-20T12:11:36;0.20;;;0.20;;
73729;SDS011;62036;48.128;16.458;2023-12-20T12:14:03;0.40;;;0.30;;
73729;SDS011;62036;48.128;16.458;2023-12-20T12:16:32;0.65;;;0.40;;
73729;SDS011;62036;48.128;16.458;2023-12-20T12:18:58;2.30;;;0.20;;
73729;SDS011;62036;48.128;16.458;2023-12-20T12:21:25;1.27;;;0.35;;
73729;SDS011;62036;48.128;16.458;2023-12-20T12:23:51;0.57;;;0.40;;
73729;SDS011;62036;48.128;16.458;2023-12-20T12:26:18;0.88;;;0.40;;
73729;SDS011;62036;48.128;16.458;2023-12-20T12:28:47;1.35;;;0.38;;
73729;SDS011;62036;48.128;16.458;2023-12-20T12:31:14;0.32;;;0.32;;
73729;SDS011;62036;48.128;16.458;2023-12-20T12:33:43;0.57;;;0.22;;
73729;SDS011;62036;48.128;16.458;2023-12-20T12:36:10;0.63;;;0.32;;
73729;SDS011;62036;48.128;16.458;2023-12-20T12:38:36;0.43;;;0.25;;
73729;SDS011;62036;48.128;16.458;2023-12-20T12:41:03;0.55;;;0.40;;
73729;SDS011;62036;48.128;16.458;2023-12-20T12:43:29;0.55;;;0.35;;
73729;SDS011;62036;48.128;16.458;2023-12-20T12:45:58;0.28;;;0.28;;
73729;SDS011;62036;48.128;16.458;2023-12-20T12:48:24;0.30;;;0.22;;
73729;SDS011;62036;48.128;16.458;2023-12-20T12:50:50;0.52;;;0.50;;
73729;SDS011;62036;48.128;16.458;2023-12-20T12:53:18;0.75;;;0.63;;
73729;SDS011;62036;48.128;16.458;2023-12-20T12:55:44;0.40;;;0.38;;
73729;SDS011;62036;48.128;16.458;2023-12-20T12:58:10;0.43;;;0.40;;
73729;SDS011;62036;48.128;16.458;2023-12-20T13:00:36;0.30;;;0.30;;
73729;SDS011;62036;48.128;16.458;2023-12-20T13:03:02;0.32;;;0.25;;
73729;SDS011;62036;48.128;16.458;2023-12-20T13:05:29;0.28;;;0.28;;
73729;SDS011;62036;48.128;16.458;2023-12-20T13:07:56;0.63;;;0.40;;
73729;SDS011;62036;48.128;16.458;2023-12-20T13:10:22;0.40;;;0.30;;
73729;SDS011;62036;48.128;16.458;2023-12-20T13:12:48;0.70;;;0.52;;
73729;SDS011;62036;48.128;16.458;2023-12-20T13:15:14;0.32;;;0.20;;
73729;SDS011;62036;48.128;16.458;2023-12-20T13:17:41;0.40;;;0.40;;
73729;SDS011;62036;48.128;16.458;2023-12-20T13:20:07;0.93;;;0.40;;
73729;SDS011;62036;48.128;16.458;2023-12-20T13:22:33;0.68;;;0.63;;
73729;SDS011;62036;48.128;16.458;2023-12-20T13:25:00;0.98;;;0.65;;
73729;SDS011;62036;48.128;16.458;2023-12-20T13:27:28;0.93;;;0.75;;
73729;SDS011;62036;48.128;16.458;2023-12-20T13:29:54;1.85;;;0.73;;
73729;SDS011;62036;48.128;16.458;2023-12-20T13:32:20;0.40;;;0.30;;
73729;SDS011;62036;48.128;16.458;2023-12-20T13:34:46;0.60;;;0.60;;
73729;SDS011;62036;48.128;16.458;2023-12-20T13:37:12;0.57;;;0.47;;
73729;SDS011;62036;48.128;16.458;2023-12-20T13:39:39;0.80;;;0.50;;
73729;SDS011;62036;48.128;16.458;2023-12-20T13:42:06;0.57;;;0.30;;
73729;SDS011;62036;48.128;16.458;2023-12-20T13:44:32;2.25;;;0.68;;
73729;SDS011;62036;48.128;16.458;2023-12-20T13:46:59;0.70;;;0.52;;
73729;SDS011;62036;48.128;16.458;2023-12-20T13:49:26;0.55;;;0.50;;
73729;SDS011;62036;48.128;16.458;2023-12-20T13:51:53;0.50;;;0.47;;
73729;SDS011;62036;48.128;16.458;2023-12-20T13:54:20;0.70;;;0.60;;
73729;SDS011;62036;48.128;16.458;2023-12-20T13:56:47;1.50;;;0.70;;
73729;SDS011;62036;48.128;16.458;2023-12-20T13:59:13;0.63;;;0.57;;
73729;SDS011;62036;48.128;16.458;2023-12-20T14:01:40;0.90;;;0.50;;
73729;SDS011;62036;48.128;16.458;2023-12-20T14:04:06;0.65;;;0.50;;
73729;SDS011;62036;48.128;16.458;2023-12-20T14:06:32;0.50;;;0.47;;
73729;SDS011;62036;48.128;16.458;2023-12-20T14:08:59;0.40;;;0.32;;
73729;SDS011;62036;48.128;16.458;2023-12-20T14:11:28;0.60;;;0.50;;
73729;SDS011;62036;48.128;16.458;2023-12-20T14:13:54;0.75;;;0.70;;
73729;SDS011;62036;48.128;16.458;2023-12-20T14:16:23;1.02;;;0.73;;
73729;SDS011;62036;48.128;16.458;2023-12-20T14:18:49;0.95;;;0.65;;
73729;SDS011;62036;48.128;16.458;2023-12-20T14:21:22;1.15;;;0.50;;
73729;SDS011;62036;48.128;16.458;2023-12-20T14:23:49;0.50;;;0.50;;
73729;SDS011;62036;48.128;16.458;2023-12-20T14:26:15;0.93;;;0.60;;
73729;SDS011;62036;48.128;16.458;2023-12-20T14:28:41;0.98;;;0.80;;
73729;SDS011;62036;48.128;16.458;2023-12-20T14:31:07;0.60;;;0.60;;
73729;SDS011;62036;48.128;16.458;2023-12-20T14:33:35;1.92;;;0.70;;
73729;SDS011;62036;48.128;16.458;2023-12-20T14:36:02;2.10;;;0.70;;
73729;SDS011;62036;48.128;16.458;2023-12-20T14:38:30;0.80;;;0.55;;
73729;SDS011;62036;48.128;16.458;2023-12-20T14:40:56;0.55;;;0.50;;
73729;SDS011;62036;48.128;16.458;2023-12-20T14:43:22;1.15;;;0.50;;
73729;SDS011;62036;48.128;16.458;2023-12-20T14:45:48;1.98;;;0.57;;
73729;SDS011;62036;48.128;16.458;2023-12-20T14:48:16;0.93;;;0.60;;
73729;SDS011;62036;48.128;16.458;2023-12-20T14:50:43;0.40;;;0.32;;
73729;SDS011;62036;48.128;16.458;2023-12-20T14:53:09;0.50;;;0.30;;
73729;SDS011;62036;48.128;16.458;2023-12-20T14:55:35;0.60;;;0.57;;
73729;SDS011;62036;48.128;16.458;2023-12-20T14:58:02;1.15;;;1.00;;
73729;SDS011;62036;48.128;16.458;2023-12-20T15:00:28;0.82;;;0.82;;
73729;SDS011;62036;48.128;16.458;2023-12-20T15:02:54;0.55;;;0.55;;
73729;SDS011;62036;48.128;16.458;2023-12-20T15:05:20;1.08;;;0.70;;
73729;SDS011;62036;48.128;16.458;2023-12-20T15:07:47;1.35;;;0.70;;
73729;SDS011;62036;48.128;16.458;2023-12-20T15:10:13;2.55;;;0.80;;
73729;SDS011;62036;48.128;16.458;2023-12-20T15:12:39;2.58;;;1.13;;
73729;SDS011;62036;48.128;16.458;2023-12-20T15:15:06;1.50;;;0.90;;
73729;SDS011;62036;48.128;16.458;2023-12-20T15:17:34;1.02;;;0.65;;
73729;SDS011;62036;48.128;16.458;2023-12-20T15:20:01;0.63;;;0.63;;
73729;SDS011;62036;48.128;16.458;2023-12-20T15:22:27;1.08;;;0.85;;
73729;SDS011;62036;48.128;16.458;2023-12-20T15:24:53;0.57;;;0.57;;
73729;SDS011;62036;48.128;16.458;2023-12-20T15:27:20;1.13;;;0.63;;
73729;SDS011;62036;48.128;16.458;2023-12-20T15:29:46;0.95;;;0.80;;
73729;SDS011;62036;48.128;16.458;2023-12-20T15:32:13;0.98;;;0.95;;